sensor_id;sensor_type;location;lat;lon;timestamp;P1;durP1;ratioP1;P2;durP2;ratioP2
31238;SDS011;17871;31.584;74.450;2024-02-26T00:00:07;126.18;;;55.38;;
31238;SDS011;17871;31.584;74.450;2024-02-26T00:02:37;118.95;;;56.05;;
31238;SDS011;17871;31.584;74.450;2024-02-26T00:05:08;131.95;;;59.67;;
31238;SDS011;17871;31.584;74.450;2024-02-26T00:07:37;132.23;;;61.70;;
31238;SDS011;17871;31.584;74.450;2024-02-26T00:10:07;132.70;;;61.25;;
31238;SDS011;17871;31.584;74.450;2024-02-26T00:12:37;129.48;;;63.60;;
31238;SDS011;17871;31.584;74.450;2024-02-26T00:15:08;131.43;;;62.70;;
31238;SDS011;17871;31.584;74.450;2024-02-26T00:17:37;151.98;;;65.38;;
31238;SDS011;17871;31.584;74.450;2024-02-26T00:20:07;128.60;;;60.83;;
31238;SDS011;17871;31.584;74.450;2024-02-26T00:22:39;139.75;;;63.70;;
31238;SDS011;17871;31.584;74.450;2024-02-26T00:25:08;141.80;;;66.40;;
31238;SDS011;17871;31.584;74.450;2024-02-26T00:27:37;149.15;;;64.50;;
31238;SDS011;17871;31.584;74.450;2024-02-26T00:30:09;138.75;;;66.13;;
31238;SDS011;17871;31.584;74.450;2024-02-26T00:32:38;158.40;;;67.25;;
31238;SDS011;17871;31.584;74.450;2024-02-26T00:35:08;165.05;;;75.47;;
31238;SDS011;17871;31.584;74.450;2024-02-26T00:37:38;173.30;;;78.25;;
31238;SDS011;17871;31.584;74.450;2024-02-26T00:40:07;177.50;;;75.68;;
31238;SDS011;17871;31.584;74.450;2024-02-26T00:42:37;176.80;;;79.22;;
31238;SDS011;17871;31.584;74.450;2024-02-26T00:45:06;223.60;;;84.07;;
31238;SDS011;17871;31.584;74.450;2024-02-26T00:47:36;195.50;;;81.60;;
31238;SDS011;17871;31.584;74.450;2024-02-26T00:50:05;207.45;;;88.95;;
31238;SDS011;17871;31.584;74.450;2024-02-26T00:52:35;218.27;;;90.13;;
31238;SDS011;17871;31.584;74.450;2024-02-26T00:55:04;195.30;;;84.15;;
31238;SDS011;17871;31.584;74.450;2024-02-26T00:57:34;202.80;;;84.10;;
31238;SDS011;17871;31.584;74.450;2024-02-26T01:00:03;210.07;;;87.88;;
31238;SDS011;17871;31.584;74.450;2024-02-26T01:02:33;214.73;;;91.85;;
31238;SDS011;17871;31.584;74.450;2024-02-26T01:05:02;204.85;;;88.93;;
31238;SDS011;17871;31.584;74.450;2024-02-26T01:07:31;198.60;;;86.88;;
31238;SDS011;17871;31.584;74.450;2024-02-26T01:10:04;199.13;;;85.40;;
31238;SDS011;17871;31.584;74.450;2024-02-26T01:12:36;167.40;;;80.13;;
31238;SDS011;17871;31.584;74.450;2024-02-26T01:15:06;170.10;;;76.85;;
31238;SDS011;17871;31.584;74.450;2024-02-26T01:17:36;172.75;;;74.53;;
31238;SDS011;17871;31.584;74.450;2024-02-26T01:20:05;161.30;;;73.47;;
31238;SDS011;17871;31.584;74.450;2024-02-26T01:22:34;173.35;;;72.68;;
31238;SDS011;17871;31.584;74.450;2024-02-26T01:25:03;157.82;;;70.40;;
31238;SDS011;17871;31.584;74.450;2024-02-26T01:27:32;148.70;;;69.93;;
31238;SDS011;17871;31.584;74.450;2024-02-26T01:30:04;162.23;;;66.93;;
31238;SDS011;17871;31.584;74.450;2024-02-26T01:32:34;151.60;;;68.40;;
31238;SDS011;17871;31.584;74.450;2024-02-26T01:35:05;153.85;;;68.85;;
31238;SDS011;17871;31.584;74.450;2024-02-26T01:37:38;152.70;;;71.47;;
31238;SDS011;17871;31.584;74.450;2024-02-26T01:40:07;175.35;;;72.20;;
31238;SDS011;17871;31.584;74.450;2024-02-26T01:42:38;169.48;;;75.95;;
31238;SDS011;17871;31.584;74.450;2024-02-26T01:45:08;178.10;;;79.35;;
31238;SDS011;17871;31.584;74.450;2024-02-26T01:47:43;182.65;;;81.93;;
31238;SDS011;17871;31.584;74.450;2024-02-26T01:50:13;189.15;;;80.53;;
31238;SDS011;17871;31.584;74.450;2024-02-26T01:52:42;172.32;;;82.05;;
31238;SDS011;17871;31.584;74.450;2024-02-26T01:55:12;191.13;;;89.47;;
31238;SDS011;17871;31.584;74.450;2024-02-26T01:57:43;205.52;;;91.38;;
31238;SDS011;17871;31.584;74.450;2024-02-26T02:00:12;231.82;;;96.13;;
31238;SDS011;17871;31.584;74.450;2024-02-26T02:02:43;243.10;;;102.57;;
31238;SDS011;17871;31.584;74.450;2024-02-26T02:05:15;242.13;;;104.47;;
31238;SDS011;17871;31.584;74.450;2024-02-26T02:07:48;233.73;;;103.20;;
31238;SDS011;17871;31.584;74.450;2024-02-26T02:10:17;243.35;;;104.90;;
31238;SDS011;17871;31.584;74.450;2024-02-26T02:12:51;262.08;;;109.68;;
31238;SDS011;17871;31.584;74.450;2024-02-26T02:15:20;320.85;;;139.00;;
31238;SDS011;17871;31.584;74.450;2024-02-26T02:17:50;311.58;;;134.25;;
31238;SDS011;17871;31.584;74.450;2024-02-26T02:20:23;315.88;;;133.60;;
31238;SDS011;17871;31.584;74.450;2024-02-26T02:22:53;331.13;;;139.80;;
31238;SDS011;17871;31.584;74.450;2024-02-26T02:25:22;364.80;;;158.25;;
31238;SDS011;17871;31.584;74.450;2024-02-26T02:27:51;371.10;;;166.80;;
31238;SDS011;17871;31.584;74.450;2024-02-26T02:30:25;372.98;;;161.55;;
31238;SDS011;17871;31.584;74.450;2024-02-26T02:32:55;382.83;;;164.15;;
31238;SDS011;17871;31.584;74.450;2024-02-26T02:35:24;396.73;;;171.80;;
31238;SDS011;17871;31.584;74.450;2024-02-26T02:37:54;402.92;;;176.85;;
31238;SDS011;17871;31.584;74.450;2024-02-26T02:40:25;434.58;;;191.43;;
31238;SDS011;17871;31.584;74.450;2024-02-26T02:42:53;443.85;;;189.55;;
31238;SDS011;17871;31.584;74.450;2024-02-26T02:45:23;448.38;;;194.15;;
31238;SDS011;17871;31.584;74.450;2024-02-26T02:47:52;440.02;;;189.80;;
31238;SDS011;17871;31.584;74.450;2024-02-26T02:50:21;440.33;;;193.25;;
31238;SDS011;17871;31.584;74.450;2024-02-26T02:52:50;455.52;;;199.40;;
31238;SDS011;17871;31.584;74.450;2024-02-26T02:55:19;421.00;;;185.98;;
31238;SDS011;17871;31.584;74.450;2024-02-26T02:57:48;398.80;;;171.85;;
31238;SDS011;17871;31.584;74.450;2024-02-26T03:00:17;397.65;;;164.88;;
31238;SDS011;17871;31.584;74.450;2024-02-26T03:02:47;414.35;;;173.60;;
31238;SDS011;17871;31.584;74.450;2024-02-26T03:05:16;421.25;;;176.20;;
31238;SDS011;17871;31.584;74.450;2024-02-26T03:07:46;412.48;;;184.75;;
31238;SDS011;17871;31.584;74.450;2024-02-26T03:10:15;418.52;;;187.20;;
31238;SDS011;17871;31.584;74.450;2024-02-26T03:12:46;423.25;;;183.30;;
31238;SDS011;17871;31.584;74.450;2024-02-26T03:15:15;386.40;;;177.48;;
31238;SDS011;17871;31.584;74.450;2024-02-26T03:17:44;346.88;;;151.15;;
31238;SDS011;17871;31.584;74.450;2024-02-26T03:20:14;341.38;;;146.73;;
31238;SDS011;17871;31.584;74.450;2024-02-26T03:22:43;365.80;;;154.50;;
31238;SDS011;17871;31.584;74.450;2024-02-26T03:25:12;382.08;;;160.00;;
31238;SDS011;17871;31.584;74.450;2024-02-26T03:27:41;343.35;;;149.07;;
31238;SDS011;17871;31.584;74.450;2024-02-26T03:30:10;242.45;;;108.03;;
31238;SDS011;17871;31.584;74.450;2024-02-26T03:32:39;233.50;;;98.75;;
31238;SDS011;17871;31.584;74.450;2024-02-26T03:35:08;243.98;;;105.15;;
31238;SDS011;17871;31.584;74.450;2024-02-26T03:37:38;270.45;;;103.38;;
31238;SDS011;17871;31.584;74.450;2024-02-26T03:40:07;218.20;;;96.63;;
31238;SDS011;17871;31.584;74.450;2024-02-26T03:42:36;217.93;;;90.78;;
31238;SDS011;17871;31.584;74.450;2024-02-26T03:45:06;226.77;;;90.43;;
31238;SDS011;17871;31.584;74.450;2024-02-26T03:47:35;280.85;;;102.25;;
31238;SDS011;17871;31.584;74.450;2024-02-26T03:50:04;231.90;;;99.78;;
31238;SDS011;17871;31.584;74.450;2024-02-26T03:52:33;220.20;;;98.05;;
31238;SDS011;17871;31.584;74.450;2024-02-26T03:55:03;223.52;;;94.97;;
31238;SDS011;17871;31.584;74.450;2024-02-26T03:57:33;239.60;;;100.22;;
31238;SDS011;17871;31.584;74.450;2024-02-26T04:00:02;226.93;;;98.32;;
31238;SDS011;17871;31.584;74.450;2024-02-26T04:02:36;241.63;;;106.32;;
31238;SDS011;17871;31.584;74.450;2024-02-26T04:05:08;254.98;;;107.63;;
31238;SDS011;17871;31.584;74.450;2024-02-26T04:07:40;263.02;;;111.15;;
31238;SDS011;17871;31.584;74.450;2024-02-26T04:10:12;279.00;;;116.65;;
31238;SDS011;17871;31.584;74.450;2024-02-26T04:12:41;299.42;;;126.57;;
31238;SDS011;17871;31.584;74.450;2024-02-26T04:15:13;297.10;;;126.97;;
31238;SDS011;17871;31.584;74.450;2024-02-26T04:17:42;333.77;;;137.48;;
31238;SDS011;17871;31.584;74.450;2024-02-26T04:20:13;350.83;;;142.35;;
31238;SDS011;17871;31.584;74.450;2024-02-26T04:22:44;395.20;;;157.93;;
31238;SDS011;17871;31.584;74.450;2024-02-26T04:25:13;421.15;;;168.77;;
31238;SDS011;17871;31.584;74.450;2024-02-26T04:27:43;398.63;;;161.70;;
31238;SDS011;17871;31.584;74.450;2024-02-26T04:30:12;427.75;;;159.68;;
31238;SDS011;17871;31.584;74.450;2024-02-26T04:32:41;409.73;;;154.52;;
31238;SDS011;17871;31.584;74.450;2024-02-26T04:35:10;402.80;;;149.35;;
31238;SDS011;17871;31.584;74.450;2024-02-26T04:37:43;378.05;;;153.38;;
31238;SDS011;17871;31.584;74.450;2024-02-26T04:40:12;364.67;;;148.18;;
31238;SDS011;17871;31.584;74.450;2024-02-26T04:42:41;390.50;;;155.20;;
31238;SDS011;17871;31.584;74.450;2024-02-26T04:45:10;404.00;;;166.95;;
31238;SDS011;17871;31.584;74.450;2024-02-26T04:47:41;405.88;;;157.77;;
31238;SDS011;17871;31.584;74.450;2024-02-26T04:50:10;388.17;;;164.85;;
31238;SDS011;17871;31.584;74.450;2024-02-26T04:52:40;369.63;;;151.52;;
31238;SDS011;17871;31.584;74.450;2024-02-26T04:55:12;389.67;;;151.40;;
31238;SDS011;17871;31.584;74.450;2024-02-26T04:57:42;387.05;;;155.43;;
31238;SDS011;17871;31.584;74.450;2024-02-26T05:00:12;400.77;;;169.75;;
31238;SDS011;17871;31.584;74.450;2024-02-26T05:02:41;406.48;;;169.38;;
31238;SDS011;17871;31.584;74.450;2024-02-26T05:05:11;383.60;;;161.05;;
31238;SDS011;17871;31.584;74.450;2024-02-26T05:07:41;331.42;;;139.73;;
31238;SDS011;17871;31.584;74.450;2024-02-26T05:10:14;327.88;;;136.27;;
31238;SDS011;17871;31.584;74.450;2024-02-26T05:12:43;289.50;;;127.72;;
31238;SDS011;17871;31.584;74.450;2024-02-26T05:15:11;287.70;;;122.22;;
31238;SDS011;17871;31.584;74.450;2024-02-26T05:17:46;285.85;;;117.57;;
31238;SDS011;17871;31.584;74.450;2024-02-26T05:20:15;275.08;;;114.80;;
31238;SDS011;17871;31.584;74.450;2024-02-26T05:22:44;249.85;;;105.55;;
31238;SDS011;17871;31.584;74.450;2024-02-26T05:25:17;228.68;;;98.47;;
31238;SDS011;17871;31.584;74.450;2024-02-26T05:27:46;216.48;;;90.45;;
31238;SDS011;17871;31.584;74.450;2024-02-26T05:30:15;188.85;;;81.80;;
31238;SDS011;17871;31.584;74.450;2024-02-26T05:32:44;195.55;;;81.57;;
31238;SDS011;17871;31.584;74.450;2024-02-26T05:35:14;172.20;;;72.05;;
31238;SDS011;17871;31.584;74.450;2024-02-26T05:37:43;146.85;;;62.45;;
31238;SDS011;17871;31.584;74.450;2024-02-26T05:40:12;121.53;;;53.80;;
31238;SDS011;17871;31.584;74.450;2024-02-26T05:42:41;99.93;;;49.58;;
31238;SDS011;17871;31.584;74.450;2024-02-26T05:45:13;138.13;;;53.30;;
31238;SDS011;17871;31.584;74.450;2024-02-26T05:47:42;122.65;;;52.55;;
31238;SDS011;17871;31.584;74.450;2024-02-26T05:50:11;139.43;;;54.30;;
31238;SDS011;17871;31.584;74.450;2024-02-26T05:52:41;140.65;;;58.30;;
31238;SDS011;17871;31.584;74.450;2024-02-26T05:55:10;118.45;;;52.92;;
31238;SDS011;17871;31.584;74.450;2024-02-26T05:57:39;97.93;;;48.88;;
31238;SDS011;17871;31.584;74.450;2024-02-26T06:00:09;129.65;;;57.40;;
31238;SDS011;17871;31.584;74.450;2024-02-26T06:02:42;123.05;;;56.88;;
31238;SDS011;17871;31.584;74.450;2024-02-26T06:05:11;164.30;;;67.72;;
31238;SDS011;17871;31.584;74.450;2024-02-26T06:07:40;131.68;;;58.22;;
31238;SDS011;17871;31.584;74.450;2024-02-26T06:10:09;128.82;;;54.03;;
31238;SDS011;17871;31.584;74.450;2024-02-26T06:12:38;127.00;;;52.15;;
31238;SDS011;17871;31.584;74.450;2024-02-26T06:15:08;119.15;;;55.35;;
31238;SDS011;17871;31.584;74.450;2024-02-26T06:17:37;136.32;;;61.70;;
31238;SDS011;17871;31.584;74.450;2024-02-26T06:20:06;146.15;;;68.70;;
31238;SDS011;17871;31.584;74.450;2024-02-26T06:22:40;185.77;;;95.45;;
31238;SDS011;17871;31.584;74.450;2024-02-26T06:25:10;165.70;;;95.63;;
31238;SDS011;17871;31.584;74.450;2024-02-26T06:27:39;135.70;;;62.80;;
31238;SDS011;17871;31.584;74.450;2024-02-26T06:30:08;130.80;;;67.95;;
31238;SDS011;17871;31.584;74.450;2024-02-26T06:32:46;123.47;;;60.25;;
31238;SDS011;17871;31.584;74.450;2024-02-26T06:35:15;136.23;;;62.70;;
31238;SDS011;17871;31.584;74.450;2024-02-26T06:37:48;138.95;;;65.88;;
31238;SDS011;17871;31.584;74.450;2024-02-26T06:40:19;132.77;;;64.57;;
31238;SDS011;17871;31.584;74.450;2024-02-26T06:42:48;135.27;;;64.13;;
31238;SDS011;17871;31.584;74.450;2024-02-26T06:45:18;130.60;;;60.08;;
31238;SDS011;17871;31.584;74.450;2024-02-26T06:47:50;120.22;;;54.03;;
31238;SDS011;17871;31.584;74.450;2024-02-26T06:50:19;117.32;;;53.38;;
31238;SDS011;17871;31.584;74.450;2024-02-26T06:52:49;119.75;;;52.63;;
31238;SDS011;17871;31.584;74.450;2024-02-26T06:55:17;114.20;;;54.25;;
31238;SDS011;17871;31.584;74.450;2024-02-26T06:57:47;95.50;;;48.05;;
31238;SDS011;17871;31.584;74.450;2024-02-26T07:00:16;123.00;;;50.38;;
31238;SDS011;17871;31.584;74.450;2024-02-26T07:02:45;90.65;;;44.88;;
31238;SDS011;17871;31.584;74.450;2024-02-26T07:05:15;113.32;;;45.15;;
31238;SDS011;17871;31.584;74.450;2024-02-26T07:07:44;102.80;;;44.15;;
31238;SDS011;17871;31.584;74.450;2024-02-26T07:10:13;79.85;;;41.90;;
31238;SDS011;17871;31.584;74.450;2024-02-26T07:12:42;98.80;;;41.05;;
31238;SDS011;17871;31.584;74.450;2024-02-26T07:15:11;106.05;;;44.22;;
31238;SDS011;17871;31.584;74.450;2024-02-26T07:17:40;115.07;;;49.45;;
31238;SDS011;17871;31.584;74.450;2024-02-26T07:20:10;116.95;;;44.67;;
31238;SDS011;17871;31.584;74.450;2024-02-26T07:22:39;101.47;;;42.20;;
31238;SDS011;17871;31.584;74.450;2024-02-26T07:25:11;89.53;;;37.97;;
31238;SDS011;17871;31.584;74.450;2024-02-26T07:27:41;115.13;;;46.35;;
31238;SDS011;17871;31.584;74.450;2024-02-26T07:30:10;94.38;;;35.80;;
31238;SDS011;17871;31.584;74.450;2024-02-26T07:32:40;88.53;;;36.58;;
31238;SDS011;17871;31.584;74.450;2024-02-26T07:35:09;92.20;;;42.60;;
31238;SDS011;17871;31.584;74.450;2024-02-26T07:37:39;83.63;;;39.53;;
31238;SDS011;17871;31.584;74.450;2024-02-26T07:40:08;105.57;;;41.03;;
31238;SDS011;17871;31.584;74.450;2024-02-26T07:42:37;91.38;;;42.70;;
31238;SDS011;17871;31.584;74.450;2024-02-26T07:45:07;79.53;;;36.72;;
31238;SDS011;17871;31.584;74.450;2024-02-26T07:47:37;69.45;;;32.95;;
31238;SDS011;17871;31.584;74.450;2024-02-26T07:50:09;47.95;;;23.88;;
31238;SDS011;17871;31.584;74.450;2024-02-26T07:52:40;40.92;;;22.65;;
31238;SDS011;17871;31.584;74.450;2024-02-26T07:55:10;59.40;;;23.52;;
31238;SDS011;17871;31.584;74.450;2024-02-26T07:57:41;51.05;;;23.45;;
31238;SDS011;17871;31.584;74.450;2024-02-26T08:00:12;42.35;;;20.50;;
31238;SDS011;17871;31.584;74.450;2024-02-26T08:02:45;30.25;;;18.27;;
31238;SDS011;17871;31.584;74.450;2024-02-26T08:05:15;38.33;;;18.42;;
31238;SDS011;17871;31.584;74.450;2024-02-26T08:07:44;42.42;;;17.02;;
31238;SDS011;17871;31.584;74.450;2024-02-26T08:10:14;31.85;;;14.05;;
31238;SDS011;17871;31.584;74.450;2024-02-26T08:12:43;35.00;;;16.98;;
31238;SDS011;17871;31.584;74.450;2024-02-26T08:15:18;37.25;;;17.10;;
31238;SDS011;17871;31.584;74.450;2024-02-26T08:17:47;50.85;;;21.20;;
31238;SDS011;17871;31.584;74.450;2024-02-26T08:20:16;44.63;;;18.48;;
31238;SDS011;17871;31.584;74.450;2024-02-26T08:22:47;52.13;;;20.50;;
31238;SDS011;17871;31.584;74.450;2024-02-26T08:25:16;47.65;;;18.63;;
31238;SDS011;17871;31.584;74.450;2024-02-26T08:27:46;37.15;;;17.10;;
31238;SDS011;17871;31.584;74.450;2024-02-26T08:30:16;35.15;;;17.08;;
31238;SDS011;17871;31.584;74.450;2024-02-26T08:32:46;42.67;;;17.85;;
31238;SDS011;17871;31.584;74.450;2024-02-26T08:35:19;55.63;;;18.40;;
31238;SDS011;17871;31.584;74.450;2024-02-26T08:37:48;46.55;;;17.88;;
31238;SDS011;17871;31.584;74.450;2024-02-26T08:40:17;41.50;;;16.30;;
31238;SDS011;17871;31.584;74.450;2024-02-26T08:42:48;33.53;;;14.32;;
31238;SDS011;17871;31.584;74.450;2024-02-26T08:45:17;40.35;;;14.88;;
31238;SDS011;17871;31.584;74.450;2024-02-26T08:47:46;37.45;;;15.02;;
31238;SDS011;17871;31.584;74.450;2024-02-26T08:50:15;27.98;;;14.48;;
31238;SDS011;17871;31.584;74.450;2024-02-26T08:52:44;28.52;;;15.52;;
31238;SDS011;17871;31.584;74.450;2024-02-26T08:55:17;44.83;;;16.83;;
31238;SDS011;17871;31.584;74.450;2024-02-26T08:57:46;37.38;;;18.58;;
31238;SDS011;17871;31.584;74.450;2024-02-26T09:00:16;53.10;;;18.63;;
31238;SDS011;17871;31.584;74.450;2024-02-26T09:02:49;45.60;;;18.27;;
31238;SDS011;17871;31.584;74.450;2024-02-26T09:05:18;34.70;;;15.30;;
31238;SDS011;17871;31.584;74.450;2024-02-26T09:07:47;25.08;;;12.73;;
31238;SDS011;17871;31.584;74.450;2024-02-26T09:10:16;42.78;;;14.27;;
31238;SDS011;17871;31.584;74.450;2024-02-26T09:12:45;30.40;;;14.23;;
31238;SDS011;17871;31.584;74.450;2024-02-26T09:15:14;33.38;;;16.20;;
31238;SDS011;17871;31.584;74.450;2024-02-26T09:17:44;39.90;;;16.48;;
31238;SDS011;17871;31.584;74.450;2024-02-26T09:20:14;39.33;;;16.38;;
31238;SDS011;17871;31.584;74.450;2024-02-26T09:22:43;38.10;;;16.30;;
31238;SDS011;17871;31.584;74.450;2024-02-26T09:25:13;47.92;;;16.63;;
31238;SDS011;17871;31.584;74.450;2024-02-26T09:27:44;42.10;;;15.65;;
31238;SDS011;17871;31.584;74.450;2024-02-26T09:30:13;26.73;;;16.00;;
31238;SDS011;17871;31.584;74.450;2024-02-26T09:32:45;35.78;;;15.60;;
31238;SDS011;17871;31.584;74.450;2024-02-26T09:35:15;30.38;;;16.30;;
31238;SDS011;17871;31.584;74.450;2024-02-26T09:37:44;43.90;;;12.65;;
31238;SDS011;17871;31.584;74.450;2024-02-26T09:40:13;29.58;;;11.60;;
31238;SDS011;17871;31.584;74.450;2024-02-26T09:42:43;26.65;;;11.73;;
31238;SDS011;17871;31.584;74.450;2024-02-26T09:45:17;37.17;;;12.18;;
31238;SDS011;17871;31.584;74.450;2024-02-26T09:47:47;32.38;;;10.18;;
31238;SDS011;17871;31.584;74.450;2024-02-26T09:50:17;27.45;;;8.85;;
31238;SDS011;17871;31.584;74.450;2024-02-26T09:52:51;27.40;;;9.10;;
31238;SDS011;17871;31.584;74.450;2024-02-26T09:55:21;19.75;;;9.25;;
31238;SDS011;17871;31.584;74.450;2024-02-26T09:57:51;30.92;;;10.98;;
31238;SDS011;17871;31.584;74.450;2024-02-26T10:00:21;26.95;;;10.30;;
31238;SDS011;17871;31.584;74.450;2024-02-26T10:02:50;33.17;;;11.50;;
31238;SDS011;17871;31.584;74.450;2024-02-26T10:05:20;38.85;;;11.80;;
31238;SDS011;17871;31.584;74.450;2024-02-26T10:07:50;25.58;;;9.90;;
31238;SDS011;17871;31.584;74.450;2024-02-26T10:10:21;15.40;;;7.47;;
31238;SDS011;17871;31.584;74.450;2024-02-26T10:12:51;22.02;;;7.47;;
31238;SDS011;17871;31.584;74.450;2024-02-26T10:15:20;10.15;;;6.40;;
31238;SDS011;17871;31.584;74.450;2024-02-26T10:17:49;25.38;;;9.75;;
31238;SDS011;17871;31.584;74.450;2024-02-26T10:20:18;13.35;;;7.32;;
31238;SDS011;17871;31.584;74.450;2024-02-26T10:22:50;11.90;;;6.55;;
31238;SDS011;17871;31.584;74.450;2024-02-26T10:25:20;18.35;;;7.32;;
31238;SDS011;17871;31.584;74.450;2024-02-26T10:27:49;21.10;;;7.15;;
31238;SDS011;17871;31.584;74.450;2024-02-26T10:30:19;16.85;;;6.55;;
31238;SDS011;17871;31.584;74.450;2024-02-26T10:32:49;16.20;;;6.18;;
31238;SDS011;17871;31.584;74.450;2024-02-26T10:35:19;23.30;;;7.55;;
31238;SDS011;17871;31.584;74.450;2024-02-26T10:37:51;21.15;;;8.32;;
31238;SDS011;17871;31.584;74.450;2024-02-26T10:40:21;24.70;;;7.13;;
31238;SDS011;17871;31.584;74.450;2024-02-26T10:42:50;22.08;;;7.03;;
31238;SDS011;17871;31.584;74.450;2024-02-26T10:45:19;8.98;;;6.03;;
31238;SDS011;17871;31.584;74.450;2024-02-26T10:47:50;11.40;;;6.47;;
31238;SDS011;17871;31.584;74.450;2024-02-26T10:50:19;20.30;;;6.50;;
31238;SDS011;17871;31.584;74.450;2024-02-26T10:52:48;18.20;;;6.38;;
31238;SDS011;17871;31.584;74.450;2024-02-26T10:55:18;16.80;;;6.85;;
31238;SDS011;17871;31.584;74.450;2024-02-26T10:57:51;14.88;;;6.97;;
31238;SDS011;17871;31.584;74.450;2024-02-26T11:00:21;17.35;;;7.55;;
31238;SDS011;17871;31.584;74.450;2024-02-26T11:02:50;17.13;;;8.77;;
31238;SDS011;17871;31.584;74.450;2024-02-26T11:05:20;18.20;;;7.80;;
31238;SDS011;17871;31.584;74.450;2024-02-26T11:07:49;16.27;;;7.78;;
31238;SDS011;17871;31.584;74.450;2024-02-26T11:10:19;27.60;;;8.68;;
31238;SDS011;17871;31.584;74.450;2024-02-26T11:12:48;25.45;;;8.02;;
31238;SDS011;17871;31.584;74.450;2024-02-26T11:15:18;16.08;;;7.88;;
31238;SDS011;17871;31.584;74.450;2024-02-26T11:17:48;15.13;;;7.97;;
31238;SDS011;17871;31.584;74.450;2024-02-26T11:20:17;25.55;;;7.82;;
31238;SDS011;17871;31.584;74.450;2024-02-26T11:22:48;20.60;;;10.02;;
31238;SDS011;17871;31.584;74.450;2024-02-26T11:25:17;22.20;;;9.27;;
31238;SDS011;17871;31.584;74.450;2024-02-26T11:27:49;21.15;;;10.00;;
31238;SDS011;17871;31.584;74.450;2024-02-26T11:30:22;24.23;;;10.73;;
31238;SDS011;17871;31.584;74.450;2024-02-26T11:32:51;31.52;;;13.63;;
31238;SDS011;17871;31.584;74.450;2024-02-26T11:35:21;31.13;;;12.77;;
31238;SDS011;17871;31.584;74.450;2024-02-26T11:37:54;61.45;;;35.25;;
31238;SDS011;17871;31.584;74.450;2024-02-26T11:40:25;73.53;;;35.55;;
31238;SDS011;17871;31.584;74.450;2024-02-26T11:42:54;46.10;;;24.88;;
31238;SDS011;17871;31.584;74.450;2024-02-26T11:48:11;33.47;;;14.43;;
31238;SDS011;17871;31.584;74.450;2024-02-26T11:50:42;36.35;;;13.27;;
31238;SDS011;17871;31.584;74.450;2024-02-26T11:53:46;33.53;;;13.10;;
31238;SDS011;17871;31.584;74.450;2024-02-26T11:59:04;77.75;;;26.60;;
31238;SDS011;17871;31.584;74.450;2024-02-26T12:01:38;43.90;;;16.52;;
31238;SDS011;17871;31.584;74.450;2024-02-26T12:04:12;42.35;;;15.18;;
31238;SDS011;17871;31.584;74.450;2024-02-26T12:06:47;32.97;;;14.82;;
31238;SDS011;17871;31.584;74.450;2024-02-26T12:12:17;44.55;;;14.30;;
31238;SDS011;17871;31.584;74.450;2024-02-26T12:14:53;44.42;;;15.20;;
31238;SDS011;17871;31.584;74.450;2024-02-26T12:17:25;39.78;;;15.27;;
31238;SDS011;17871;31.584;74.450;2024-02-26T12:19:54;31.98;;;13.55;;
31238;SDS011;17871;31.584;74.450;2024-02-26T12:22:24;28.35;;;12.80;;
31238;SDS011;17871;31.584;74.450;2024-02-26T12:24:59;34.60;;;14.30;;
31238;SDS011;17871;31.584;74.450;2024-02-26T12:27:30;41.63;;;13.70;;
31238;SDS011;17871;31.584;74.450;2024-02-26T12:29:59;43.13;;;16.60;;
31238;SDS011;17871;31.584;74.450;2024-02-26T12:32:28;36.17;;;16.52;;
31238;SDS011;17871;31.584;74.450;2024-02-26T12:34:58;55.08;;;15.82;;
31238;SDS011;17871;31.584;74.450;2024-02-26T12:37:28;47.17;;;17.40;;
31238;SDS011;17871;31.584;74.450;2024-02-26T12:39:57;35.53;;;17.15;;
31238;SDS011;17871;31.584;74.450;2024-02-26T12:42:26;51.03;;;18.17;;
31238;SDS011;17871;31.584;74.450;2024-02-26T12:44:56;36.55;;;16.27;;
31238;SDS011;17871;31.584;74.450;2024-02-26T12:47:25;52.15;;;19.50;;
31238;SDS011;17871;31.584;74.450;2024-02-26T12:49:54;53.55;;;27.15;;
31238;SDS011;17871;31.584;74.450;2024-02-26T12:52:23;67.00;;;30.38;;
31238;SDS011;17871;31.584;74.450;2024-02-26T12:54:52;56.30;;;27.70;;
31238;SDS011;17871;31.584;74.450;2024-02-26T12:57:21;66.43;;;27.38;;
31238;SDS011;17871;31.584;74.450;2024-02-26T12:59:50;65.72;;;27.50;;
31238;SDS011;17871;31.584;74.450;2024-02-26T13:02:20;76.68;;;25.80;;
31238;SDS011;17871;31.584;74.450;2024-02-26T13:04:49;76.50;;;25.10;;
31238;SDS011;17871;31.584;74.450;2024-02-26T13:07:18;80.03;;;26.08;;
31238;SDS011;17871;31.584;74.450;2024-02-26T13:09:47;113.25;;;44.90;;
31238;SDS011;17871;31.584;74.450;2024-02-26T13:12:16;78.97;;;27.60;;
31238;SDS011;17871;31.584;74.450;2024-02-26T13:14:45;66.28;;;26.05;;
31238;SDS011;17871;31.584;74.450;2024-02-26T13:17:20;71.90;;;30.08;;
31238;SDS011;17871;31.584;74.450;2024-02-26T13:19:51;72.88;;;29.10;;
31238;SDS011;17871;31.584;74.450;2024-02-26T13:22:20;74.93;;;29.63;;
31238;SDS011;17871;31.584;74.450;2024-02-26T13:24:55;80.00;;;31.77;;
31238;SDS011;17871;31.584;74.450;2024-02-26T13:27:25;68.97;;;30.00;;
31238;SDS011;17871;31.584;74.450;2024-02-26T13:30:04;89.88;;;29.80;;
31238;SDS011;17871;31.584;74.450;2024-02-26T13:32:34;67.85;;;27.00;;
31238;SDS011;17871;31.584;74.450;2024-02-26T13:35:07;71.45;;;26.38;;
31238;SDS011;17871;31.584;74.450;2024-02-26T13:37:37;74.25;;;24.63;;
31238;SDS011;17871;31.584;74.450;2024-02-26T13:40:07;92.43;;;32.00;;
31238;SDS011;17871;31.584;74.450;2024-02-26T13:42:38;98.90;;;33.88;;
31238;SDS011;17871;31.584;74.450;2024-02-26T13:45:07;87.90;;;37.63;;
31238;SDS011;17871;31.584;74.450;2024-02-26T13:47:36;91.25;;;36.33;;
31238;SDS011;17871;31.584;74.450;2024-02-26T13:50:06;116.78;;;36.30;;
31238;SDS011;17871;31.584;74.450;2024-02-26T13:52:35;97.88;;;36.70;;
31238;SDS011;17871;31.584;74.450;2024-02-26T13:55:05;96.20;;;37.95;;
31238;SDS011;17871;31.584;74.450;2024-02-26T13:57:35;94.50;;;36.17;;
31238;SDS011;17871;31.584;74.450;2024-02-26T14:00:05;112.45;;;37.67;;
31238;SDS011;17871;31.584;74.450;2024-02-26T14:02:37;91.28;;;37.28;;
31238;SDS011;17871;31.584;74.450;2024-02-26T14:05:07;90.70;;;35.50;;
31238;SDS011;17871;31.584;74.450;2024-02-26T14:07:36;93.75;;;34.95;;
31238;SDS011;17871;31.584;74.450;2024-02-26T14:10:05;102.72;;;36.38;;
31238;SDS011;17871;31.584;74.450;2024-02-26T14:12:35;77.85;;;33.53;;
31238;SDS011;17871;31.584;74.450;2024-02-26T14:15:06;82.82;;;31.13;;
31238;SDS011;17871;31.584;74.450;2024-02-26T14:17:39;88.90;;;31.27;;
31238;SDS011;17871;31.584;74.450;2024-02-26T14:20:08;88.88;;;36.33;;
31238;SDS011;17871;31.584;74.450;2024-02-26T14:22:38;86.55;;;36.97;;
31238;SDS011;17871;31.584;74.450;2024-02-26T14:25:07;76.97;;;33.92;;